Wetterdaten: Montag, 10.06.2013
Datum Zeit Temperatur Luftfeuchte Luftdruck Regen Wind Richtung Richtung Taupunkt Windchill Windben
10.06.2013 00:00 11,9 C 95 % 1011,7 hPa 0,0 l/m 0,5 km/h (0 Bft) O 90 11,1 C 11,9 C 2,1 km/h (1 Bft)
10.06.2013 00:05 12,0 C 95 % 1011,7 hPa 0,0 l/m 0,6 km/h (0 Bft) NO 45 11,2 C 11,9 C 0,0 km/h (0 Bft)
10.06.2013 00:10 12,0 C 95 % 1011,7 hPa 0,0 l/m 0,3 km/h (0 Bft) NO 45 11,2 C 11,9 C 0,0 km/h (0 Bft)
10.06.2013 00:15 12,0 C 95 % 1011,7 hPa 0,0 l/m 0,0 km/h (0 Bft) O 90 11,2 C 12,0 C 0,0 km/h (0 Bft)
10.06.2013 00:20 12,1 C 95 % 1011,7 hPa 0,0 l/m 0,0 km/h (0 Bft) O-NO 67 11,3 C 12,1 C 0,0 km/h (0 Bft)
10.06.2013 00:25 12,2 C 95 % 1011,7 hPa 0,0 l/m 0,8 km/h (0 Bft) W-NW 292 11,4 C 12,2 C 4,7 km/h (1 Bft)
10.06.2013 00:30 12,3 C 95 % 1011,7 hPa 0,0 l/m 1,1 km/h (1 Bft) S-SW 202 11,5 C 12,3 C 6,4 km/h (2 Bft)
10.06.2013 00:35 12,3 C 95 % 1011,7 hPa 0,0 l/m 0,8 km/h (0 Bft) S 180 11,5 C 12,3 C 0,0 km/h (0 Bft)
10.06.2013 00:40 12,2 C 95 % 1011,4 hPa 0,0 l/m 0,3 km/h (0 Bft) W-SW 247 11,4 C 12,3 C 2,3 km/h (1 Bft)
10.06.2013 00:45 12,2 C 95 % 1011,4 hPa 0,0 l/m 0,5 km/h (0 Bft) W-SW 247 11,4 C 12,2 C 1,6 km/h (1 Bft)
10.06.2013 00:50 12,1 C 95 % 1011,4 hPa 0,0 l/m 0,5 km/h (0 Bft) W-SW 247 11,3 C 12,2 C 0,0 km/h (0 Bft)
10.06.2013 00:55 11,9 C 96 % 1011,4 hPa 0,0 l/m 0,6 km/h (0 Bft) O-SO 112 11,3 C 11,9 C 3,2 km/h (1 Bft)
10.06.2013 01:00 11,8 C 96 % 1011,4 hPa 0,0 l/m 1,4 km/h (1 Bft) O 90 11,2 C 11,9 C 2,6 km/h (1 Bft)
10.06.2013 01:05 11,8 C 96 % 1011,4 hPa 0,0 l/m 1,6 km/h (1 Bft) O 90 11,2 C 11,8 C 1,8 km/h (1 Bft)
10.06.2013 01:10 11,8 C 96 % 1011,4 hPa 0,0 l/m 1,1 km/h (1 Bft) SO 135 11,2 C 11,8 C 0,0 km/h (0 Bft)
10.06.2013 01:15 11,8 C 96 % 1011,4 hPa 0,0 l/m 0,6 km/h (0 Bft) SO 135 11,2 C 11,8 C 1,8 km/h (1 Bft)
10.06.2013 01:20 11,8 C 96 % 1011,6 hPa 0,0 l/m 0,6 km/h (0 Bft) S 180 11,2 C 11,8 C 1,8 km/h (1 Bft)
10.06.2013 01:25 11,8 C 96 % 1011,6 hPa 0,0 l/m 1,8 km/h (1 Bft) S 180 11,2 C 11,9 C 3,2 km/h (1 Bft)
10.06.2013 01:30 11,8 C 96 % 1011,6 hPa 0,0 l/m 2,3 km/h (1 Bft) S-SW 202 11,2 C 11,9 C 1,8 km/h (1 Bft)
10.06.2013 01:35 11,9 C 96 % 1011,6 hPa 0,0 l/m 1,1 km/h (1 Bft) W-NW 292 11,3 C 11,9 C 0,0 km/h (0 Bft)
10.06.2013 01:40 11,8 C 96 % 1011,4 hPa 0,0 l/m 0,5 km/h (0 Bft) O 90 11,2 C 11,9 C 3,1 km/h (1 Bft)
10.06.2013 01:45 11,8 C 96 % 1011,4 hPa 0,0 l/m 1,0 km/h (0 Bft) NO 45 11,2 C 11,9 C 3,2 km/h (1 Bft)
10.06.2013 01:50 11,8 C 96 % 1011,4 hPa 0,0 l/m 1,4 km/h (1 Bft) SO 135 11,2 C 11,9 C 2,3 km/h (1 Bft)
10.06.2013 01:55 11,8 C 96 % 1011,4 hPa 0,0 l/m 1,6 km/h (1 Bft) O-SO 112 11,2 C 11,9 C 0,0 km/h (0 Bft)
10.06.2013 02:00 11,8 C 96 % 1011,6 hPa 0,0 l/m 1,1 km/h (1 Bft) S-SW 202 11,2 C 11,9 C 1,9 km/h (1 Bft)
10.06.2013 02:05 11,8 C 96 % 1011,6 hPa 0,0 l/m 1,0 km/h (0 Bft) O-SO 112 11,2 C 11,8 C 2,3 km/h (1 Bft)
10.06.2013 02:10 11,8 C 96 % 1011,6 hPa 0,0 l/m 1,0 km/h (0 Bft) O-SO 112 11,2 C 11,8 C 0,0 km/h (0 Bft)
10.06.2013 02:15 11,8 C 96 % 1011,6 hPa 0,7 l/m 0,8 km/h (0 Bft) S-SO 157 11,2 C 11,7 C 2,7 km/h (1 Bft)
10.06.2013 02:20 11,8 C 96 % 1011,4 hPa 0,0 l/m 1,4 km/h (1 Bft) S-SO 157 11,2 C 11,7 C 3,9 km/h (1 Bft)
10.06.2013 02:25 11,8 C 96 % 1011,4 hPa 0,0 l/m 2,4 km/h (1 Bft) O 90 11,2 C 11,7 C 0,0 km/h (0 Bft)
10.06.2013 02:30 11,7 C 96 % 1011,4 hPa 0,0 l/m 2,1 km/h (1 Bft) SO 135 11,1 C 11,7 C 2,3 km/h (1 Bft)
10.06.2013 02:35 11,7 C 96 % 1011,4 hPa 0,0 l/m 1,6 km/h (1 Bft) W-SW 247 11,1 C 11,6 C 2,1 km/h (1 Bft)
10.06.2013 02:40 11,6 C 96 % 1011,2 hPa 0,0 l/m 1,3 km/h (1 Bft) O 90 11,0 C 11,6 C 2,6 km/h (1 Bft)
10.06.2013 02:45 11,6 C 96 % 1011,2 hPa 0,0 l/m 1,6 km/h (1 Bft) SO 135 11,0 C 11,5 C 0,0 km/h (0 Bft)
10.06.2013 02:50 11,5 C 96 % 1011,2 hPa 0,0 l/m 1,6 km/h (1 Bft) NO 45 10,9 C 11,5 C 1,6 km/h (1 Bft)
10.06.2013 02:55 11,6 C 96 % 1011,2 hPa 0,0 l/m 0,2 km/h (0 Bft) O-SO 112 11,0 C 11,5 C 0,0 km/h (0 Bft)
10.06.2013 03:00 11,6 C 96 % 1011,2 hPa 0,0 l/m 0,3 km/h (0 Bft) SW 225 11,0 C 11,5 C 0,0 km/h (0 Bft)
10.06.2013 03:05 11,6 C 96 % 1011,2 hPa 0,0 l/m 1,0 km/h (0 Bft) S 180 11,0 C 11,5 C 2,6 km/h (1 Bft)
10.06.2013 03:10 11,5 C 96 % 1011,2 hPa 0,0 l/m 1,0 km/h (0 Bft) W-SW 247 10,9 C 11,5 C 1,9 km/h (1 Bft)
10.06.2013 03:15 11,5 C 96 % 1011,2 hPa 0,0 l/m 1,6 km/h (1 Bft) S-SO 157 10,9 C 11,4 C 6,0 km/h (2 Bft)
10.06.2013 03:20 11,5 C 96 % 1011,2 hPa 0,0 l/m 1,9 km/h (1 Bft) S 180 10,9 C 11,4 C 0,0 km/h (0 Bft)
10.06.2013 03:25 11,4 C 96 % 1011,2 hPa 0,0 l/m 1,6 km/h (1 Bft) S-SO 157 10,8 C 11,3 C 0,0 km/h (0 Bft)
10.06.2013 03:30 11,2 C 96 % 1011,2 hPa 0,0 l/m 0,8 km/h (0 Bft) S-SO 157 10,6 C 11,2 C 0,0 km/h (0 Bft)
10.06.2013 03:35 11,1 C 96 % 1011,2 hPa 0,0 l/m 0,3 km/h (0 Bft) S 180 10,5 C 11,1 C 3,1 km/h (1 Bft)
10.06.2013 03:40 11,0 C 96 % 1011,0 hPa 0,0 l/m 1,0 km/h (0 Bft) S-SO 157 10,4 C 11,0 C 2,7 km/h (1 Bft)
10.06.2013 03:45 10,9 C 96 % 1011,0 hPa 0,0 l/m 1,6 km/h (1 Bft) S-SO 157 10,3 C 10,9 C 0,0 km/h (0 Bft)
10.06.2013 03:50 10,8 C 96 % 1011,0 hPa 0,0 l/m 1,0 km/h (0 Bft) O-SO 112 10,2 C 10,9 C 1,9 km/h (1 Bft)
10.06.2013 03:55 10,8 C 96 % 1011,0 hPa 0,0 l/m 0,8 km/h (0 Bft) S 180 10,2 C 10,8 C 1,9 km/h (1 Bft)
10.06.2013 04:00 10,8 C 96 % 1011,1 hPa 0,0 l/m 2,1 km/h (1 Bft) SW 225 10,2 C 10,9 C 2,6 km/h (1 Bft)
10.06.2013 04:05 11,0 C 96 % 1011,1 hPa 0,0 l/m 3,2 km/h (1 Bft) S 180 10,4 C 11,0 C 5,1 km/h (1 Bft)
10.06.2013 04:10 11,0 C 96 % 1011,1 hPa 0,0 l/m 2,4 km/h (1 Bft) S 180 10,4 C 11,0 C 7,7 km/h (2 Bft)
10.06.2013 04:15 11,0 C 95 % 1011,1 hPa 0,0 l/m 2,9 km/h (1 Bft) S 180 10,2 C 11,1 C 5,8 km/h (2 Bft)
10.06.2013 04:20 11,0 C 95 % 1011,1 hPa 0,0 l/m 3,2 km/h (1 Bft) SW 225 10,2 C 11,1 C 4,2 km/h (1 Bft)
10.06.2013 04:25 11,0 C 95 % 1011,1 hPa 0,0 l/m 2,3 km/h (1 Bft) S 180 10,2 C 11,0 C 4,0 km/h (1 Bft)
10.06.2013 04:30 11,0 C 96 % 1011,1 hPa 0,0 l/m 2,1 km/h (1 Bft) S 180 10,4 C 11,0 C 3,4 km/h (1 Bft)
10.06.2013 04:35 10,9 C 96 % 1011,1 hPa 0,0 l/m 2,6 km/h (1 Bft) S 180 10,3 C 11,0 C 2,4 km/h (1 Bft)
10.06.2013 04:40 10,9 C 96 % 1011,1 hPa 0,0 l/m 2,3 km/h (1 Bft) O-SO 112 10,3 C 10,9 C 1,6 km/h (1 Bft)
10.06.2013 04:45 10,9 C 96 % 1011,1 hPa 0,0 l/m 1,8 km/h (1 Bft) S-SO 157 10,3 C 10,8 C 3,2 km/h (1 Bft)
10.06.2013 04:50 10,9 C 96 % 1011,1 hPa 0,0 l/m 2,7 km/h (1 Bft) SO 135 10,3 C 10,8 C 10,0 km/h (2 Bft)
10.06.2013 04:55 10,8 C 96 % 1011,1 hPa 0,0 l/m 4,2 km/h (1 Bft) SO 135 10,2 C 10,8 C 6,0 km/h (2 Bft)
10.06.2013 05:00 10,8 C 96 % 1011,1 hPa 0,0 l/m 4,2 km/h (1 Bft) S-SO 157 10,2 C 10,7 C 6,8 km/h (2 Bft)
10.06.2013 05:05 10,6 C 96 % 1011,1 hPa 0,0 l/m 4,7 km/h (1 Bft) S-SO 157 10,0 C 10,7 C 3,9 km/h (1 Bft)
10.06.2013 05:10 10,6 C 96 % 1011,1 hPa 0,0 l/m 4,2 km/h (1 Bft) S 180 10,0 C 10,6 C 11,4 km/h (2 Bft)
10.06.2013 05:15 10,6 C 96 % 1011,1 hPa 0,0 l/m 3,4 km/h (1 Bft) W-SW 247 10,0 C 10,6 C 0,0 km/h (0 Bft)
10.06.2013 05:20 10,5 C 96 % 1011,2 hPa 0,0 l/m 3,2 km/h (1 Bft) S-SO 157 9,9 C 10,5 C 3,1 km/h (1 Bft)
10.06.2013 05:25 10,5 C 96 % 1011,2 hPa 0,0 l/m 3,4 km/h (1 Bft) O 90 9,9 C 10,4 C 3,4 km/h (1 Bft)
10.06.2013 05:30 10,4 C 96 % 1011,2 hPa 0,0 l/m 4,2 km/h (1 Bft) S-SO 157 9,8 C 10,4 C 13,0 km/h (3 Bft)
10.06.2013 05:35 10,4 C 96 % 1011,2 hPa 0,0 l/m 4,3 km/h (1 Bft) S-SO 157 9,8 C 10,4 C 2,7 km/h (1 Bft)
10.06.2013 05:40 10,4 C 96 % 1011,2 hPa 0,0 l/m 4,0 km/h (1 Bft) O-SO 112 9,8 C 10,4 C 2,3 km/h (1 Bft)
10.06.2013 05:45 10,3 C 96 % 1011,2 hPa 0,0 l/m 3,4 km/h (1 Bft) W-SW 247 9,7 C 10,3 C 2,9 km/h (1 Bft)
10.06.2013 05:50 10,3 C 96 % 1011,2 hPa 0,0 l/m 4,3 km/h (1 Bft) SO 135 9,7 C 10,3 C 11,6 km/h (2 Bft)
10.06.2013 05:55 10,3 C 96 % 1011,2 hPa 0,0 l/m 6,0 km/h (2 Bft) S 180 9,7 C 9,8 C 11,9 km/h (2 Bft)
10.06.2013 06:00 10,2 C 96 % 1011,2 hPa 0,0 l/m 7,6 km/h (2 Bft) S 180 9,6 C 8,5 C 15,6 km/h (3 Bft)
10.06.2013 06:05 10,1 C 96 % 1011,2 hPa 0,0 l/m 8,4 km/h (2 Bft) S 180 9,5 C 7,7 C 10,9 km/h (2 Bft)
10.06.2013 06:10 10,0 C 96 % 1011,2 hPa 0,0 l/m 6,9 km/h (2 Bft) S 180 9,4 C 9,1 C 20,0 km/h (4 Bft)
10.06.2013 06:15 9,9 C 96 % 1011,2 hPa 0,0 l/m 7,2 km/h (2 Bft) S 180 9,3 C 8,6 C 10,5 km/h (2 Bft)
10.06.2013 06:20 9,9 C 96 % 1011,4 hPa 0,0 l/m 6,9 km/h (2 Bft) S 180 9,3 C 8,8 C 10,3 km/h (2 Bft)
10.06.2013 06:25 9,9 C 95 % 1011,4 hPa 0,0 l/m 6,4 km/h (2 Bft) S 180 9,1 C 9,3 C 7,1 km/h (2 Bft)
10.06.2013 06:30 10,0 C 95 % 1011,4 hPa 0,0 l/m 6,3 km/h (2 Bft) SW 225 9,2 C 9,4 C 6,8 km/h (2 Bft)
10.06.2013 06:35 10,0 C 95 % 1011,4 hPa 0,0 l/m 7,4 km/h (2 Bft) S-SO 157 9,2 C 8,3 C 10,3 km/h (2 Bft)
10.06.2013 06:40 10,0 C 95 % 1011,9 hPa 0,0 l/m 7,7 km/h (2 Bft) S 180 9,2 C 8,1 C 5,8 km/h (2 Bft)
10.06.2013 06:45 10,0 C 95 % 1011,9 hPa 0,0 l/m 6,9 km/h (2 Bft) S-SW 202 9,2 C 8,8 C 10,3 km/h (2 Bft)
10.06.2013 06:50 10,0 C 95 % 1011,9 hPa 0,0 l/m 7,6 km/h (2 Bft) N-NO 22 9,2 C 8,2 C 11,7 km/h (2 Bft)
10.06.2013 06:55 10,1 C 95 % 1011,9 hPa 0,0 l/m 7,7 km/h (2 Bft) S-SO 157 9,3 C 8,1 C 6,3 km/h (2 Bft)
10.06.2013 07:00 10,1 C 95 % 1012,2 hPa 0,0 l/m 6,8 km/h (2 Bft) S 180 9,3 C 9,0 C 3,5 km/h (1 Bft)
10.06.2013 07:05 10,2 C 95 % 1012,2 hPa 0,0 l/m 6,4 km/h (2 Bft) S 180 9,4 C 9,3 C 12,4 km/h (3 Bft)
10.06.2013 07:10 10,1 C 95 % 1012,2 hPa 0,0 l/m 6,4 km/h (2 Bft) S 180 9,3 C 9,3 C 12,7 km/h (3 Bft)
10.06.2013 07:15 10,1 C 95 % 1012,2 hPa 0,7 l/m 6,8 km/h (2 Bft) S 180 9,3 C 9,0 C 9,0 km/h (2 Bft)
10.06.2013 07:20 10,1 C 95 % 1012,5 hPa 0,0 l/m 6,1 km/h (2 Bft) NO 45 9,3 C 9,4 C 8,4 km/h (2 Bft)
10.06.2013 07:25 10,0 C 95 % 1012,5 hPa 0,0 l/m 5,3 km/h (1 Bft) W-SW 247 9,2 C 9,7 C 6,0 km/h (2 Bft)
10.06.2013 07:30 10,1 C 95 % 1012,5 hPa 0,0 l/m 5,5 km/h (1 Bft) S 180 9,3 C 9,6 C 6,1 km/h (2 Bft)
10.06.2013 07:35 10,2 C 95 % 1012,5 hPa 0,0 l/m 5,1 km/h (1 Bft) S 180 9,4 C 9,9 C 9,5 km/h (2 Bft)
10.06.2013 07:40 10,2 C 95 % 1012,4 hPa 0,0 l/m 4,7 km/h (1 Bft) O 90 9,4 C 10,1 C 9,3 km/h (2 Bft)
10.06.2013 07:45 10,2 C 94 % 1012,4 hPa 0,0 l/m 6,1 km/h (2 Bft) S-SW 202 9,3 C 9,7 C 7,4 km/h (2 Bft)
10.06.2013 07:50 10,2 C 94 % 1012,4 hPa 0,0 l/m 6,4 km/h (2 Bft) O-SO 112 9,3 C 9,8 C 7,4 km/h (2 Bft)
10.06.2013 07:55 10,2 C 94 % 1012,4 hPa 0,0 l/m 6,8 km/h (2 Bft) S 180 9,3 C 9,4 C 7,7 km/h (2 Bft)
10.06.2013 08:00 10,1 C 94 % 1012,8 hPa 0,0 l/m 7,9 km/h (2 Bft) S 180 9,2 C 8,2 C 8,0 km/h (2 Bft)
10.06.2013 08:05 10,1 C 94 % 1012,8 hPa 0,0 l/m 7,7 km/h (2 Bft) SO 135 9,2 C 8,3 C 9,0 km/h (2 Bft)
10.06.2013 08:10 10,1 C 94 % 1012,8 hPa 0,0 l/m 7,1 km/h (2 Bft) S-SW 202 9,2 C 9,0 C 5,5 km/h (1 Bft)
10.06.2013 08:15 10,2 C 93 % 1012,8 hPa 0,0 l/m 6,6 km/h (2 Bft) S-SO 157 9,1 C 9,6 C 7,9 km/h (2 Bft)
10.06.2013 08:20 10,3 C 93 % 1012,4 hPa 0,0 l/m 7,1 km/h (2 Bft) SW 225 9,2 C 9,1 C 11,3 km/h (2 Bft)
10.06.2013 08:25 10,3 C 93 % 1012,4 hPa 0,0 l/m 7,6 km/h (2 Bft) W 270 9,2 C 9,0 C 7,9 km/h (2 Bft)
10.06.2013 08:30 10,3 C 93 % 1012,4 hPa 0,0 l/m 7,9 km/h (2 Bft) S 180 9,2 C 8,7 C 11,3 km/h (2 Bft)
10.06.2013 08:35 10,3 C 91 % 1012,4 hPa 0,0 l/m 8,9 km/h (2 Bft) S-SW 202 8,9 C 7,9 C 11,1 km/h (2 Bft)
10.06.2013 08:40 10,3 C 91 % 1012,9 hPa 0,0 l/m 10,0 km/h (2 Bft) O-SO 112 8,9 C 7,0 C 15,4 km/h (3 Bft)
10.06.2013 08:45 10,3 C 90 % 1012,9 hPa 0,0 l/m 10,1 km/h (2 Bft) SO 135 8,7 C 6,9 C 17,7 km/h (3 Bft)
10.06.2013 08:50 10,2 C 89 % 1012,9 hPa 0,0 l/m 10,0 km/h (2 Bft) S 180 8,5 C 6,9 C 21,2 km/h (4 Bft)
10.06.2013 08:55 10,0 C 88 % 1012,9 hPa 0,0 l/m 10,8 km/h (2 Bft) SO 135 8,1 C 6,2 C 10,3 km/h (2 Bft)
10.06.2013 09:00 10,0 C 88 % 1013,0 hPa 0,0 l/m 11,6 km/h (2 Bft) S 180 8,1 C 5,5 C 24,9 km/h (4 Bft)
10.06.2013 09:05 10,0 C 88 % 1013,0 hPa 0,0 l/m 10,9 km/h (2 Bft) S 180 8,1 C 6,1 C 18,2 km/h (3 Bft)
10.06.2013 09:10 10,0 C 88 % 1013,0 hPa 0,0 l/m 10,5 km/h (2 Bft) S 180 8,1 C 6,2 C 13,2 km/h (3 Bft)
10.06.2013 09:15 10,1 C 88 % 1013,0 hPa 0,0 l/m 11,1 km/h (2 Bft) S 180 8,2 C 5,6 C 19,5 km/h (3 Bft)
10.06.2013 09:20 10,1 C 88 % 1013,4 hPa 0,0 l/m 11,4 km/h (2 Bft) O-SO 112 8,2 C 5,3 C 12,2 km/h (2 Bft)
10.06.2013 09:25 10,1 C 88 % 1013,4 hPa 0,0 l/m 11,1 km/h (2 Bft) S 180 8,2 C 5,6 C 14,0 km/h (3 Bft)
10.06.2013 09:30 10,1 C 88 % 1013,4 hPa 0,0 l/m 9,8 km/h (2 Bft) SO 135 8,2 C 6,5 C 5,6 km/h (1 Bft)
10.06.2013 09:35 10,1 C 88 % 1013,4 hPa 0,0 l/m 9,5 km/h (2 Bft) S 180 8,2 C 6,8 C 11,7 km/h (2 Bft)
10.06.2013 09:40 10,2 C 88 % 1013,5 hPa 0,0 l/m 8,7 km/h (2 Bft) SO 135 8,3 C 7,2 C 15,1 km/h (3 Bft)
10.06.2013 09:45 10,3 C 89 % 1013,5 hPa 0,0 l/m 6,9 km/h (2 Bft) O-SO 112 8,6 C 8,9 C 12,1 km/h (2 Bft)
10.06.2013 09:50 10,5 C 89 % 1013,5 hPa 0,0 l/m 6,4 km/h (2 Bft) SO 135 8,8 C 9,6 C 8,4 km/h (2 Bft)
10.06.2013 09:55 10,7 C 89 % 1013,5 hPa 0,0 l/m 7,1 km/h (2 Bft) SO 135 9,0 C 9,1 C 10,5 km/h (2 Bft)
10.06.2013 10:00 10,9 C 88 % 1013,6 hPa 0,0 l/m 8,0 km/h (2 Bft) W-SW 247 9,0 C 8,5 C 8,7 km/h (2 Bft)
10.06.2013 10:05 11,2 C 88 % 1013,6 hPa 0,0 l/m 7,9 km/h (2 Bft) S 180 9,3 C 9,0 C 8,5 km/h (2 Bft)
10.06.2013 10:10 11,2 C 87 % 1013,6 hPa 0,0 l/m 7,4 km/h (2 Bft) SO 135 9,1 C 9,5 C 8,2 km/h (2 Bft)
10.06.2013 10:15 10,8 C 87 % 1013,6 hPa 0,0 l/m 8,5 km/h (2 Bft) SO 135 8,7 C 8,3 C 13,8 km/h (3 Bft)
10.06.2013 10:20 10,9 C 87 % 1013,8 hPa 0,0 l/m 8,7 km/h (2 Bft) SW 225 8,8 C 7,6 C 9,2 km/h (2 Bft)
10.06.2013 10:25 11,0 C 87 % 1013,8 hPa 0,0 l/m 8,2 km/h (2 Bft) S 180 8,9 C 8,1 C 6,9 km/h (2 Bft)
10.06.2013 10:30 11,3 C 87 % 1013,8 hPa 0,0 l/m 7,9 km/h (2 Bft) S 180 9,2 C 8,7 C 7,4 km/h (2 Bft)
10.06.2013 10:35 11,6 C 87 % 1013,8 hPa 0,0 l/m 7,9 km/h (2 Bft) S-SW 202 9,5 C 9,4 C 15,8 km/h (3 Bft)
10.06.2013 10:40 11,2 C 86 % 1013,9 hPa 0,0 l/m 9,5 km/h (2 Bft) S 180 8,9 C 8,1 C 15,3 km/h (3 Bft)
10.06.2013 10:45 10,6 C 86 % 1013,9 hPa 0,0 l/m 9,8 km/h (2 Bft) S 180 8,4 C 7,1 C 9,8 km/h (2 Bft)
10.06.2013 10:50 10,4 C 86 % 1013,9 hPa 0,0 l/m 9,0 km/h (2 Bft) S-SO 157 8,2 C 7,2 C 10,0 km/h (2 Bft)
10.06.2013 10:55 10,4 C 88 % 1013,9 hPa 0,0 l/m 7,6 km/h (2 Bft) S-SW 202 8,5 C 8,2 C 7,2 km/h (2 Bft)
10.06.2013 11:00 10,3 C 88 % 1014,4 hPa 0,0 l/m 7,4 km/h (2 Bft) S-SW 202 8,4 C 8,2 C 10,8 km/h (2 Bft)
10.06.2013 11:05 10,3 C 88 % 1014,4 hPa 0,0 l/m 7,4 km/h (2 Bft) S 180 8,4 C 8,0 C 10,5 km/h (2 Bft)
10.06.2013 11:10 10,3 C 88 % 1014,4 hPa 0,0 l/m 6,8 km/h (2 Bft) S 180 8,4 C 8,6 C 13,5 km/h (3 Bft)
10.06.2013 11:15 10,3 C 88 % 1014,4 hPa 0,0 l/m 7,6 km/h (2 Bft) W-SW 247 8,4 C 7,9 C 8,7 km/h (2 Bft)
10.06.2013 11:20 10,3 C 89 % 1014,3 hPa 0,0 l/m 7,9 km/h (2 Bft) S-SW 202 8,6 C 7,8 C 8,0 km/h (2 Bft)
10.06.2013 11:25 10,4 C 89 % 1014,3 hPa 0,0 l/m 6,3 km/h (2 Bft) S 180 8,7 C 9,4 C 4,0 km/h (1 Bft)
10.06.2013 11:30 10,4 C 89 % 1014,3 hPa 0,0 l/m 6,0 km/h (2 Bft) S-SW 202 8,7 C 9,4 C 14,3 km/h (3 Bft)
10.06.2013 11:35 10,3 C 89 % 1014,3 hPa 0,0 l/m 6,4 km/h (2 Bft) S-SO 157 8,6 C 9,1 C 6,3 km/h (2 Bft)
10.06.2013 11:40 10,3 C 89 % 1014,5 hPa 0,0 l/m 6,9 km/h (2 Bft) S 180 8,6 C 8,7 C 5,3 km/h (1 Bft)
10.06.2013 11:45 10,6 C 89 % 1014,5 hPa 0,0 l/m 6,4 km/h (2 Bft) S 180 8,9 C 9,3 C 10,9 km/h (2 Bft)
10.06.2013 11:50 10,7 C 89 % 1014,5 hPa 0,0 l/m 6,3 km/h (2 Bft) S 180 9,0 C 9,6 C 6,0 km/h (2 Bft)
10.06.2013 11:55 10,8 C 89 % 1014,5 hPa 0,0 l/m 6,8 km/h (2 Bft) S 180 9,1 C 9,3 C 7,2 km/h (2 Bft)
10.06.2013 12:00 10,8 C 89 % 1014,7 hPa 0,0 l/m 6,1 km/h (2 Bft) S 180 9,1 C 9,7 C 5,5 km/h (1 Bft)
10.06.2013 12:05 10,7 C 89 % 1014,7 hPa 0,0 l/m 5,8 km/h (2 Bft) S 180 9,0 C 9,8 C 8,7 km/h (2 Bft)
10.06.2013 12:10 10,6 C 89 % 1014,7 hPa 0,0 l/m 6,1 km/h (2 Bft) O-SO 112 8,9 C 9,7 C 7,2 km/h (2 Bft)
10.06.2013 12:15 10,4 C 89 % 1014,7 hPa 0,0 l/m 6,3 km/h (2 Bft) O-SO 112 8,7 C 9,5 C 6,6 km/h (2 Bft)
10.06.2013 12:20 10,4 C 89 % 1014,8 hPa 0,0 l/m 6,4 km/h (2 Bft) S 180 8,7 C 9,4 C 9,7 km/h (2 Bft)
10.06.2013 12:25 10,6 C 89 % 1014,8 hPa 0,0 l/m 6,4 km/h (2 Bft) O 90 8,9 C 9,6 C 4,2 km/h (1 Bft)
10.06.2013 12:30 10,8 C 89 % 1014,8 hPa 0,0 l/m 6,4 km/h (2 Bft) SO 135 9,1 C 9,8 C 9,2 km/h (2 Bft)
10.06.2013 12:35 10,9 C 89 % 1014,8 hPa 0,0 l/m 5,5 km/h (1 Bft) SO 135 9,2 C 10,3 C 4,7 km/h (1 Bft)
10.06.2013 12:40 11,1 C 89 % 1014,9 hPa 0,0 l/m 5,5 km/h (1 Bft) SO 135 9,4 C 10,4 C 5,5 km/h (1 Bft)
10.06.2013 12:45 11,3 C 89 % 1014,9 hPa 0,0 l/m 5,3 km/h (1 Bft) O-NO 67 9,6 C 10,7 C 4,3 km/h (1 Bft)
10.06.2013 12:50 11,4 C 89 % 1014,9 hPa 0,0 l/m 5,0 km/h (1 Bft) S-SO 157 9,7 C 11,0 C 7,7 km/h (2 Bft)
10.06.2013 12:55 11,4 C 89 % 1014,9 hPa 0,0 l/m 4,3 km/h (1 Bft) SO 135 9,7 C 11,4 C 4,2 km/h (1 Bft)
10.06.2013 13:00 11,4 C 89 % 1014,9 hPa 0,0 l/m 4,8 km/h (1 Bft) S 180 9,7 C 11,5 C 6,4 km/h (2 Bft)
10.06.2013 13:05 11,5 C 88 % 1014,9 hPa 0,0 l/m 4,7 km/h (1 Bft) S-SO 157 9,6 C 11,7 C 8,4 km/h (2 Bft)
10.06.2013 13:10 11,6 C 88 % 1014,9 hPa 0,0 l/m 4,5 km/h (1 Bft) S-SO 157 9,7 C 11,7 C 5,6 km/h (1 Bft)
10.06.2013 13:15 11,7 C 88 % 1014,9 hPa 0,0 l/m 4,0 km/h (1 Bft) O-SO 112 9,8 C 11,9 C 5,6 km/h (1 Bft)
10.06.2013 13:20 11,9 C 88 % 1015,2 hPa 0,0 l/m 4,2 km/h (1 Bft) S 180 10,0 C 11,9 C 3,2 km/h (1 Bft)
10.06.2013 13:25 12,1 C 88 % 1015,2 hPa 0,0 l/m 4,5 km/h (1 Bft) O 90 10,2 C 11,8 C 3,9 km/h (1 Bft)
10.06.2013 13:30 12,1 C 88 % 1015,2 hPa 0,0 l/m 4,7 km/h (1 Bft) S-SO 157 10,2 C 11,7 C 8,5 km/h (2 Bft)
10.06.2013 13:35 12,1 C 88 % 1015,2 hPa 0,0 l/m 4,5 km/h (1 Bft) S 180 10,2 C 11,7 C 4,8 km/h (1 Bft)
10.06.2013 13:40 12,3 C 88 % 1015,2 hPa 0,0 l/m 4,5 km/h (1 Bft) O-SO 112 10,4 C 11,8 C 8,4 km/h (2 Bft)
10.06.2013 13:45 12,4 C 87 % 1015,2 hPa 0,0 l/m 4,0 km/h (1 Bft) O-SO 112 10,3 C 12,1 C 4,8 km/h (1 Bft)
10.06.2013 13:50 12,6 C 87 % 1015,2 hPa 0,0 l/m 3,9 km/h (1 Bft) SW 225 10,5 C 12,2 C 3,4 km/h (1 Bft)
10.06.2013 13:55 12,6 C 86 % 1015,2 hPa 0,0 l/m 3,2 km/h (1 Bft) S 180 10,3 C 12,5 C 6,3 km/h (2 Bft)
10.06.2013 14:00 12,3 C 86 % 1015,2 hPa 0,0 l/m 2,9 km/h (1 Bft) S-SW 202 10,0 C 12,5 C 4,7 km/h (1 Bft)
10.06.2013 14:05 12,0 C 85 % 1015,2 hPa 0,0 l/m 4,2 km/h (1 Bft) S 180 9,6 C 12,2 C 7,7 km/h (2 Bft)
10.06.2013 14:10 11,9 C 86 % 1015,2 hPa 0,7 l/m 4,7 km/h (1 Bft) S 180 9,6 C 11,8 C 3,2 km/h (1 Bft)
10.06.2013 14:15 12,2 C 88 % 1015,2 hPa 0,0 l/m 3,5 km/h (1 Bft) SO 135 10,3 C 11,7 C 2,9 km/h (1 Bft)
10.06.2013 14:20 12,5 C 88 % 1015,2 hPa 0,0 l/m 2,4 km/h (1 Bft) SO 135 10,6 C 11,9 C 2,6 km/h (1 Bft)
10.06.2013 14:25 12,3 C 88 % 1015,2 hPa 0,0 l/m 1,4 km/h (1 Bft) SO 135 10,4 C 12,1 C 1,9 km/h (1 Bft)
10.06.2013 14:30 12,5 C 88 % 1015,2 hPa 0,0 l/m 1,4 km/h (1 Bft) S-SO 157 10,6 C 12,2 C 2,6 km/h (1 Bft)
10.06.2013 14:35 12,8 C 88 % 1015,2 hPa 0,0 l/m 1,9 km/h (1 Bft) S-SW 202 10,9 C 12,6 C 4,2 km/h (1 Bft)
10.06.2013 14:40 12,6 C 87 % 1015,4 hPa 0,0 l/m 2,1 km/h (1 Bft) S-SW 202 10,5 C 12,8 C 2,4 km/h (1 Bft)
10.06.2013 14:45 12,3 C 87 % 1015,4 hPa 0,0 l/m 2,4 km/h (1 Bft) S 180 10,2 C 12,5 C 2,4 km/h (1 Bft)
10.06.2013 14:50 12,3 C 88 % 1015,4 hPa 0,0 l/m 2,3 km/h (1 Bft) W-SW 247 10,4 C 12,3 C 3,2 km/h (1 Bft)
10.06.2013 14:55 12,1 C 87 % 1015,4 hPa 0,0 l/m 2,7 km/h (1 Bft) S 180 10,0 C 11,9 C 2,9 km/h (1 Bft)
10.06.2013 15:00 12,2 C 87 % 1015,5 hPa 0,0 l/m 2,9 km/h (1 Bft) S-SO 157 10,1 C 11,8 C 3,2 km/h (1 Bft)
10.06.2013 15:05 12,4 C 88 % 1015,5 hPa 0,0 l/m 2,6 km/h (1 Bft) W-SW 247 10,5 C 11,8 C 2,6 km/h (1 Bft)
10.06.2013 15:10 12,2 C 87 % 1015,5 hPa 0,0 l/m 2,7 km/h (1 Bft) S-SW 202 10,1 C 11,8 C 4,7 km/h (1 Bft)
10.06.2013 15:15 12,1 C 88 % 1015,5 hPa 0,0 l/m 3,1 km/h (1 Bft) S 180 10,2 C 11,7 C 4,0 km/h (1 Bft)
10.06.2013 15:20 12,0 C 87 % 1015,5 hPa 0,0 l/m 3,2 km/h (1 Bft) S-SO 157 9,9 C 11,6 C 4,0 km/h (1 Bft)
10.06.2013 15:25 12,2 C 88 % 1015,5 hPa 0,0 l/m 3,1 km/h (1 Bft) S 180 10,3 C 11,6 C 3,5 km/h (1 Bft)
10.06.2013 15:30 12,3 C 89 % 1015,5 hPa 0,0 l/m 2,6 km/h (1 Bft) O-SO 112 10,5 C 11,7 C 1,8 km/h (1 Bft)
10.06.2013 15:35 12,0 C 88 % 1015,5 hPa 0,0 l/m 2,9 km/h (1 Bft) S 180 10,1 C 11,7 C 6,1 km/h (2 Bft)
10.06.2013 15:40 11,8 C 87 % 1015,2 hPa 0,0 l/m 4,0 km/h (1 Bft) S-SW 202 9,7 C 11,6 C 9,8 km/h (2 Bft)
10.06.2013 15:45 11,8 C 88 % 1015,2 hPa 0,7 l/m 4,7 km/h (1 Bft) S 180 9,9 C 11,4 C 4,5 km/h (1 Bft)
10.06.2013 15:50 11,8 C 88 % 1015,2 hPa 0,0 l/m 4,2 km/h (1 Bft) S-SW 202 9,9 C 11,4 C 2,4 km/h (1 Bft)
10.06.2013 15:55 12,3 C 88 % 1015,2 hPa 0,0 l/m 4,3 km/h (1 Bft) W-SW 247 10,4 C 11,7 C 4,5 km/h (1 Bft)
10.06.2013 16:00 12,7 C 89 % 1015,2 hPa 0,0 l/m 4,3 km/h (1 Bft) SO 135 10,9 C 11,9 C 5,1 km/h (1 Bft)
10.06.2013 16:05 12,6 C 88 % 1015,2 hPa 0,0 l/m 4,8 km/h (1 Bft) SW 225 10,7 C 12,2 C 8,9 km/h (2 Bft)
10.06.2013 16:10 12,6 C 88 % 1015,2 hPa 0,0 l/m 5,0 km/h (1 Bft) W 270 10,7 C 12,3 C 3,4 km/h (1 Bft)
10.06.2013 16:15 12,6 C 88 % 1015,2 hPa 0,0 l/m 5,3 km/h (1 Bft) SO 135 10,7 C 12,4 C 4,8 km/h (1 Bft)
10.06.2013 16:20 12,7 C 88 % 1015,4 hPa 0,0 l/m 4,7 km/h (1 Bft) S 180 10,8 C 12,5 C 4,0 km/h (1 Bft)
10.06.2013 16:25 12,7 C 88 % 1015,4 hPa 0,0 l/m 4,0 km/h (1 Bft) S 180 10,8 C 12,8 C 3,4 km/h (1 Bft)
10.06.2013 16:30 12,3 C 87 % 1015,4 hPa 0,0 l/m 4,7 km/h (1 Bft) SW 225 10,2 C 12,6 C 7,9 km/h (2 Bft)
10.06.2013 16:35 12,2 C 87 % 1015,4 hPa 0,0 l/m 5,1 km/h (1 Bft) S 180 10,1 C 12,2 C 5,5 km/h (1 Bft)
10.06.2013 16:40 12,2 C 88 % 1015,2 hPa 0,0 l/m 5,3 km/h (1 Bft) S 180 10,3 C 11,9 C 6,1 km/h (2 Bft)
10.06.2013 16:45 12,1 C 88 % 1015,2 hPa 0,0 l/m 5,6 km/h (1 Bft) N-NW 337 10,2 C 11,7 C 6,1 km/h (2 Bft)
10.06.2013 16:50 12,0 C 88 % 1015,2 hPa 0,0 l/m 6,0 km/h (2 Bft) S 180 10,1 C 11,4 C 8,9 km/h (2 Bft)
10.06.2013 16:55 12,2 C 88 % 1015,2 hPa 0,0 l/m 5,6 km/h (1 Bft) S-SO 157 10,3 C 11,5 C 4,0 km/h (1 Bft)
10.06.2013 17:00 12,1 C 88 % 1014,8 hPa 0,0 l/m 5,1 km/h (1 Bft) S 180 10,2 C 11,7 C 4,7 km/h (1 Bft)
10.06.2013 17:05 12,2 C 88 % 1014,8 hPa 0,0 l/m 4,5 km/h (1 Bft) NW 315 10,3 C 11,9 C 7,4 km/h (2 Bft)
10.06.2013 17:10 12,1 C 88 % 1014,8 hPa 0,0 l/m 4,7 km/h (1 Bft) S 180 10,2 C 11,8 C 3,7 km/h (1 Bft)
10.06.2013 17:15 12,2 C 89 % 1014,8 hPa 0,0 l/m 4,5 km/h (1 Bft) S-SO 157 10,4 C 11,9 C 7,6 km/h (2 Bft)
10.06.2013 17:20 12,2 C 89 % 1014,7 hPa 0,0 l/m 4,3 km/h (1 Bft) S 180 10,4 C 11,8 C 5,0 km/h (1 Bft)
10.06.2013 17:25 12,2 C 89 % 1014,7 hPa 0,0 l/m 4,2 km/h (1 Bft) O-SO 112 10,4 C 11,9 C 1,6 km/h (1 Bft)
10.06.2013 17:30 12,2 C 89 % 1014,7 hPa 0,0 l/m 3,7 km/h (1 Bft) SO 135 10,4 C 11,9 C 4,5 km/h (1 Bft)
10.06.2013 17:35 12,3 C 89 % 1014,7 hPa 0,0 l/m 3,9 km/h (1 Bft) S 180 10,5 C 11,8 C 3,5 km/h (1 Bft)
10.06.2013 17:40 12,2 C 89 % 1014,8 hPa 0,0 l/m 3,7 km/h (1 Bft) SW 225 10,4 C 11,8 C 3,5 km/h (1 Bft)
10.06.2013 17:45 12,0 C 89 % 1014,8 hPa 0,0 l/m 3,5 km/h (1 Bft) S 180 10,2 C 11,7 C 5,0 km/h (1 Bft)
10.06.2013 17:50 11,9 C 89 % 1014,8 hPa 0,0 l/m 3,7 km/h (1 Bft) S-SW 202 10,1 C 11,7 C 4,5 km/h (1 Bft)
10.06.2013 17:55 11,9 C 90 % 1014,8 hPa 0,0 l/m 3,2 km/h (1 Bft) S-SW 202 10,3 C 11,6 C 3,2 km/h (1 Bft)
10.06.2013 18:00 11,9 C 90 % 1014,7 hPa 0,0 l/m 2,6 km/h (1 Bft) S 180 10,3 C 11,6 C 2,4 km/h (1 Bft)
10.06.2013 18:05 11,7 C 91 % 1014,7 hPa 0,0 l/m 2,9 km/h (1 Bft) S-SW 202 10,3 C 11,4 C 3,1 km/h (1 Bft)
10.06.2013 18:10 11,6 C 91 % 1014,7 hPa 0,0 l/m 2,6 km/h (1 Bft) S 180 10,2 C 11,2 C 1,6 km/h (1 Bft)
10.06.2013 18:15 11,4 C 91 % 1014,7 hPa 0,0 l/m 2,3 km/h (1 Bft) S-SW 202 10,0 C 11,0 C 8,7 km/h (2 Bft)
10.06.2013 18:20 11,3 C 91 % 1014,8 hPa 0,0 l/m 2,4 km/h (1 Bft) SO 135 9,9 C 10,9 C 4,0 km/h (1 Bft)
10.06.2013 18:25 11,2 C 91 % 1014,8 hPa 0,0 l/m 3,7 km/h (1 Bft) SO 135 9,8 C 10,8 C 3,7 km/h (1 Bft)
10.06.2013 18:30 11,2 C 92 % 1014,8 hPa 0,7 l/m 3,9 km/h (1 Bft) S-SO 157 9,9 C 10,7 C 4,2 km/h (1 Bft)
10.06.2013 18:35 11,1 C 92 % 1014,8 hPa 0,0 l/m 3,2 km/h (1 Bft) S 180 9,8 C 10,7 C 3,5 km/h (1 Bft)
10.06.2013 18:40 11,1 C 92 % 1014,9 hPa 0,0 l/m 2,7 km/h (1 Bft) S-SW 202 9,8 C 10,7 C 4,5 km/h (1 Bft)
10.06.2013 18:45 11,0 C 92 % 1014,9 hPa 0,0 l/m 2,9 km/h (1 Bft) S-SO 157 9,8 C 10,6 C 6,4 km/h (2 Bft)
10.06.2013 18:50 10,9 C 92 % 1014,9 hPa 0,0 l/m 3,9 km/h (1 Bft) S 180 9,7 C 10,5 C 4,8 km/h (1 Bft)
10.06.2013 18:55 10,8 C 92 % 1014,9 hPa 0,0 l/m 3,9 km/h (1 Bft) SO 135 9,6 C 10,4 C 4,3 km/h (1 Bft)
10.06.2013 19:00 10,7 C 92 % 1015,1 hPa 0,7 l/m 3,5 km/h (1 Bft) S-SO 157 9,5 C 10,4 C 4,0 km/h (1 Bft)
10.06.2013 19:05 10,6 C 93 % 1015,1 hPa 0,0 l/m 3,1 km/h (1 Bft) S 180 9,5 C 10,4 C 2,3 km/h (1 Bft)
10.06.2013 19:10 10,6 C 93 % 1015,1 hPa 0,0 l/m 2,1 km/h (1 Bft) S-SO 157 9,5 C 10,4 C 3,1 km/h (1 Bft)
10.06.2013 19:15 10,6 C 93 % 1015,1 hPa 0,0 l/m 1,4 km/h (1 Bft) S-SO 157 9,5 C 10,4 C 6,3 km/h (2 Bft)
10.06.2013 19:20 10,6 C 93 % 1015,1 hPa 0,0 l/m 1,3 km/h (1 Bft) O 90 9,5 C 10,4 C 0,0 km/h (0 Bft)
10.06.2013 19:25 10,5 C 93 % 1015,1 hPa 0,0 l/m 1,0 km/h (0 Bft) S-SW 202 9,4 C 10,4 C 3,7 km/h (1 Bft)
10.06.2013 19:30 10,5 C 93 % 1015,1 hPa 0,7 l/m 1,1 km/h (1 Bft) S 180 9,4 C 10,4 C 2,7 km/h (1 Bft)
10.06.2013 19:35 10,4 C 94 % 1015,1 hPa 0,0 l/m 1,8 km/h (1 Bft) S-SO 157 9,5 C 10,4 C 1,9 km/h (1 Bft)
10.06.2013 19:40 10,4 C 94 % 1014,9 hPa 0,7 l/m 1,6 km/h (1 Bft) O-SO 112 9,5 C 10,3 C 2,7 km/h (1 Bft)
10.06.2013 19:45 10,3 C 94 % 1014,9 hPa 0,0 l/m 1,9 km/h (1 Bft) S-SO 157 9,4 C 10,3 C 3,9 km/h (1 Bft)
10.06.2013 19:50 10,3 C 94 % 1014,9 hPa 0,0 l/m 2,1 km/h (1 Bft) O 90 9,4 C 10,3 C 0,0 km/h (0 Bft)
10.06.2013 19:55 10,3 C 94 % 1014,9 hPa 0,0 l/m 2,1 km/h (1 Bft) S 180 9,4 C 10,2 C 4,2 km/h (1 Bft)
10.06.2013 20:00 10,3 C 94 % 1014,8 hPa 0,0 l/m 2,4 km/h (1 Bft) O-SO 112 9,4 C 10,3 C 9,5 km/h (2 Bft)
10.06.2013 20:05 10,3 C 94 % 1014,8 hPa 0,7 l/m 2,9 km/h (1 Bft) O-SO 112 9,4 C 10,3 C 6,3 km/h (2 Bft)
10.06.2013 20:10 10,4 C 94 % 1014,8 hPa 0,0 l/m 2,9 km/h (1 Bft) S 180 9,5 C 10,3 C 4,8 km/h (1 Bft)
10.06.2013 20:15 10,3 C 94 % 1014,8 hPa 0,0 l/m 3,5 km/h (1 Bft) SO 135 9,4 C 10,3 C 4,7 km/h (1 Bft)
10.06.2013 20:20 10,3 C 94 % 1015,1 hPa 0,0 l/m 3,4 km/h (1 Bft) S-SO 157 9,4 C 10,3 C 4,2 km/h (1 Bft)
10.06.2013 20:25 10,3 C 95 % 1015,1 hPa 0,0 l/m 4,0 km/h (1 Bft) S-SO 157 9,5 C 10,2 C 7,4 km/h (2 Bft)
10.06.2013 20:30 10,2 C 95 % 1015,1 hPa 0,7 l/m 4,0 km/h (1 Bft) W-NW 292 9,4 C 10,2 C 4,7 km/h (1 Bft)
10.06.2013 20:35 10,2 C 95 % 1015,1 hPa 0,0 l/m 3,5 km/h (1 Bft) S-SO 157 9,4 C 10,2 C 5,1 km/h (1 Bft)
10.06.2013 20:40 10,2 C 95 % 1015,2 hPa 0,0 l/m 3,7 km/h (1 Bft) S-SO 157 9,4 C 10,2 C 6,4 km/h (2 Bft)
10.06.2013 20:45 10,2 C 95 % 1015,2 hPa 0,0 l/m 3,9 km/h (1 Bft) S-SO 157 9,4 C 10,2 C 5,8 km/h (2 Bft)
10.06.2013 20:50 10,2 C 95 % 1015,2 hPa 0,0 l/m 4,0 km/h (1 Bft) S-SO 157 9,4 C 10,1 C 6,1 km/h (2 Bft)
10.06.2013 20:55 10,1 C 95 % 1015,2 hPa 0,0 l/m 4,3 km/h (1 Bft) SO 135 9,3 C 10,1 C 2,9 km/h (1 Bft)
10.06.2013 21:00 10,1 C 95 % 1015,2 hPa 0,0 l/m 4,5 km/h (1 Bft) S 180 9,3 C 9,9 C 3,9 km/h (1 Bft)
10.06.2013 21:05 10,0 C 95 % 1015,2 hPa 0,0 l/m 4,2 km/h (1 Bft) S-SO 157 9,2 C 10,0 C 2,6 km/h (1 Bft)
10.06.2013 21:10 9,9 C 95 % 1015,2 hPa 0,0 l/m 3,9 km/h (1 Bft) S 180 9,1 C 9,9 C 3,4 km/h (1 Bft)
10.06.2013 21:15 9,9 C 95 % 1015,2 hPa 0,0 l/m 3,2 km/h (1 Bft) S-SO 157 9,1 C 9,8 C 4,3 km/h (1 Bft)
10.06.2013 21:20 9,8 C 95 % 1015,4 hPa 0,0 l/m 2,3 km/h (1 Bft) N-NW 337 9,0 C 9,8 C 0,0 km/h (0 Bft)
10.06.2013 21:25 9,8 C 95 % 1015,4 hPa 0,0 l/m 1,4 km/h (1 Bft) O 90 9,0 C 9,7 C 0,0 km/h (0 Bft)
10.06.2013 21:30 9,8 C 95 % 1015,4 hPa 0,0 l/m 1,1 km/h (1 Bft) O 90 9,0 C 9,7 C 0,0 km/h (0 Bft)
10.06.2013 21:35 9,8 C 95 % 1015,4 hPa 0,0 l/m 1,0 km/h (0 Bft) NO 45 9,0 C 9,7 C 0,0 km/h (0 Bft)
10.06.2013 21:40 9,8 C 95 % 1015,5 hPa 0,0 l/m 0,6 km/h (0 Bft) NO 45 9,0 C 9,7 C 2,6 km/h (1 Bft)
10.06.2013 21:45 9,8 C 95 % 1015,5 hPa 0,0 l/m 0,3 km/h (0 Bft) S 180 9,0 C 9,7 C 0,0 km/h (0 Bft)
10.06.2013 21:50 9,7 C 95 % 1015,5 hPa 0,0 l/m 0,3 km/h (0 Bft) O-NO 67 8,9 C 9,7 C 0,0 km/h (0 Bft)
10.06.2013 21:55 9,7 C 95 % 1015,5 hPa 0,0 l/m 0,3 km/h (0 Bft) NO 45 8,9 C 9,7 C 0,0 km/h (0 Bft)
10.06.2013 22:00 9,8 C 95 % 1015,7 hPa 0,0 l/m 0,3 km/h (0 Bft) NO 45 9,0 C 9,7 C 0,0 km/h (0 Bft)
10.06.2013 22:05 9,7 C 95 % 1015,7 hPa 0,0 l/m 0,0 km/h (0 Bft) W 270 8,9 C 9,7 C 0,0 km/h (0 Bft)
10.06.2013 22:10 9,7 C 95 % 1015,7 hPa 0,0 l/m 0,0 km/h (0 Bft) O-SO 112 8,9 C 9,7 C 0,0 km/h (0 Bft)
10.06.2013 22:15 9,7 C 95 % 1015,7 hPa 0,0 l/m 0,2 km/h (0 Bft) S-SO 157 8,9 C 9,7 C 0,0 km/h (0 Bft)
10.06.2013 22:20 9,7 C 95 % 1015,6 hPa 0,0 l/m 0,3 km/h (0 Bft) NO 45 8,9 C 9,6 C 1,6 km/h (1 Bft)
10.06.2013 22:25 9,7 C 95 % 1015,6 hPa 0,0 l/m 0,3 km/h (0 Bft) S-SW 202 8,9 C 9,7 C 0,0 km/h (0 Bft)
10.06.2013 22:30 9,7 C 95 % 1015,6 hPa 0,0 l/m 0,2 km/h (0 Bft) O-SO 112 8,9 C 9,7 C 0,0 km/h (0 Bft)
10.06.2013 22:35 9,7 C 95 % 1015,6 hPa 0,0 l/m 0,2 km/h (0 Bft) W 270 8,9 C 9,7 C 0,0 km/h (0 Bft)
10.06.2013 22:40 9,7 C 95 % 1015,6 hPa 0,7 l/m 0,3 km/h (0 Bft) O 90 8,9 C 9,7 C 0,0 km/h (0 Bft)
10.06.2013 22:45 9,7 C 95 % 1015,6 hPa 0,0 l/m 0,3 km/h (0 Bft) O 90 8,9 C 9,7 C 0,0 km/h (0 Bft)
10.06.2013 22:50 9,7 C 95 % 1015,6 hPa 0,0 l/m 0,2 km/h (0 Bft) O-NO 67 8,9 C 9,7 C 0,0 km/h (0 Bft)
10.06.2013 22:55 9,7 C 95 % 1015,6 hPa 0,0 l/m 0,0 km/h (0 Bft) N-NO 22 8,9 C 9,7 C 0,0 km/h (0 Bft)
10.06.2013 23:00 9,7 C 95 % 1015,9 hPa 0,0 l/m 0,0 km/h (0 Bft) O-NO 67 8,9 C 9,6 C 0,0 km/h (0 Bft)
10.06.2013 23:05 9,7 C 95 % 1015,9 hPa 0,0 l/m 0,0 km/h (0 Bft) SO 135 8,9 C 9,7 C 0,0 km/h (0 Bft)
10.06.2013 23:10 9,8 C 95 % 1015,9 hPa 0,0 l/m 0,0 km/h (0 Bft) S 180 9,0 C 9,7 C 0,0 km/h (0 Bft)
10.06.2013 23:15 9,8 C 95 % 1015,9 hPa 0,0 l/m 0,2 km/h (0 Bft) O 90 9,0 C 9,7 C 0,0 km/h (0 Bft)
10.06.2013 23:20 9,8 C 95 % 1016,1 hPa 0,0 l/m 0,8 km/h (0 Bft) O 90 9,0 C 9,8 C 0,0 km/h (0 Bft)
10.06.2013 23:25 9,9 C 96 % 1016,1 hPa 0,0 l/m 1,4 km/h (1 Bft) S 180 9,3 C 9,8 C 2,7 km/h (1 Bft)
10.06.2013 23:30 9,9 C 96 % 1016,1 hPa 0,0 l/m 2,1 km/h (1 Bft) S-SO 157 9,3 C 9,9 C 4,0 km/h (1 Bft)
10.06.2013 23:35 9,9 C 96 % 1016,1 hPa 0,0 l/m 2,1 km/h (1 Bft) S 180 9,3 C 10,0 C 2,1 km/h (1 Bft)
10.06.2013 23:40 10,0 C 96 % 1016,1 hPa 0,7 l/m 2,1 km/h (1 Bft) SO 135 9,4 C 10,0 C 6,6 km/h (2 Bft)
10.06.2013 23:45 10,0 C 96 % 1016,1 hPa 0,0 l/m 3,4 km/h (1 Bft) S 180 9,4 C 10,0 C 5,8 km/h (2 Bft)
10.06.2013 23:50 9,9 C 96 % 1016,1 hPa 0,0 l/m 3,4 km/h (1 Bft) SO 135 9,3 C 10,0 C 7,1 km/h (2 Bft)
10.06.2013 23:55 9,9 C 96 % 1016,1 hPa 0,0 l/m 3,4 km/h (1 Bft) S-SO 157 9,3 C 10,0 C 7,4 km/h (2 Bft)
_ Min-Zeit 23:05 14:05 03:55 - 23:10 - - 09:10 09:20 23:20
Minimum _ 9,7 C 85 % 1011,0 hPa - 0,0 km/h (0 Bft) - - 8,1 C 5,3 C 0,0 km/h (0 Bft)
_ Max-Zeit 14:35 23:55 23:55 23:40 09:00 - - 00:35 16:25 09:00
Maximum _ 12,8 C 96 % 1016,1 hPa 0,7 l/m 11,6 km/h
S (2 Bft)
- - 11,5 C 12,8 C 24,9 km/h
S (4 Bft)
Durchschnitt _ 11,0 C 92 % 1013,7 hPa #8,2 l/m 4,0 km/h (1 Bft) S - 9,8 C 10,4 C 5,3 km/h (1 Bft)